createdAt,value
2019-05-03T00:02:17.293Z,16.90
2019-05-03T00:04:48.675Z,17.00
2019-05-03T00:07:18.197Z,17.00
2019-05-03T00:09:48.592Z,16.90
2019-05-03T00:12:18.214Z,17.00
2019-05-03T00:14:49.438Z,17.00
2019-05-03T00:17:18.992Z,17.00
2019-05-03T00:19:48.656Z,16.90
2019-05-03T00:22:18.198Z,16.80
2019-05-03T00:24:47.735Z,16.80
2019-05-03T00:27:17.955Z,16.80
2019-05-03T00:29:47.570Z,16.80
2019-05-03T00:32:17.018Z,16.90
2019-05-03T00:34:48.219Z,16.90
2019-05-03T00:37:25.225Z,16.90
2019-05-03T00:39:56.415Z,16.90
2019-05-03T00:42:25.978Z,16.90
2019-05-03T00:44:55.608Z,16.90
2019-05-03T00:47:25.220Z,16.80
2019-05-03T00:49:54.720Z,16.90
2019-05-03T00:52:24.268Z,16.80
2019-05-03T00:54:53.870Z,16.80
2019-05-03T00:57:23.351Z,16.70
2019-05-03T00:59:52.945Z,16.80
2019-05-03T01:02:22.530Z,16.80
2019-05-03T01:04:51.953Z,16.70
2019-05-03T01:07:22.264Z,16.60
2019-05-03T01:09:53.123Z,16.70
2019-05-03T01:12:22.792Z,16.60
2019-05-03T01:14:53.997Z,16.50
2019-05-03T01:17:23.542Z,16.60
2019-05-03T01:19:53.017Z,16.60
2019-05-03T01:22:22.751Z,16.60
2019-05-03T01:24:52.403Z,16.70
2019-05-03T01:27:22.112Z,16.60
2019-05-03T01:29:52.090Z,16.60
2019-05-03T01:32:22.264Z,16.60
2019-05-03T01:34:52.425Z,16.60
2019-05-03T01:37:22.692Z,16.60
2019-05-03T01:39:52.783Z,16.60
2019-05-03T01:42:22.747Z,16.50
2019-05-03T01:44:52.597Z,16.50
2019-05-03T01:47:29.536Z,16.40
2019-05-03T01:50:09.530Z,16.50
2019-05-03T01:52:41.963Z,16.50
2019-05-03T01:55:15.772Z,16.40
2019-05-03T01:57:42.957Z,16.40
2019-05-03T02:00:14.820Z,16.40
2019-05-03T02:02:52.479Z,16.40
2019-05-03T02:05:40.243Z,16.30
2019-05-03T02:08:12.572Z,16.30
2019-05-03T02:10:43.734Z,16.30
2019-05-03T02:13:13.464Z,16.30
2019-05-03T02:15:44.163Z,16.30
2019-05-03T02:18:15.137Z,16.20
2019-05-03T02:20:45.907Z,16.30
2019-05-03T02:23:16.699Z,16.40
2019-05-03T02:25:56.061Z,16.40
2019-05-03T02:28:18.291Z,16.40
2019-05-03T02:30:47.791Z,16.40
2019-05-03T02:33:17.349Z,16.30
2019-05-03T02:35:46.930Z,16.40
2019-05-03T02:38:16.462Z,16.30
2019-05-03T02:40:46.024Z,16.40
2019-05-03T02:43:29.440Z,16.20
2019-05-03T02:46:12.479Z,16.20
2019-05-03T02:48:45.691Z,16.30
2019-05-03T02:51:15.705Z,16.30
2019-05-03T02:53:45.881Z,16.20
2019-05-03T02:56:22.238Z,16.10
2019-05-03T02:58:46.964Z,16.20
2019-05-03T03:01:17.313Z,16.20
2019-05-03T03:03:47.065Z,16.20
2019-05-03T03:06:19.522Z,16.10
2019-05-03T03:08:51.007Z,16.10
2019-05-03T03:11:21.882Z,16.10
2019-05-03T03:13:55.255Z,16.20
2019-05-03T03:16:27.398Z,16.10
2019-05-03T03:18:58.341Z,16.10
2019-05-03T03:21:32.033Z,16.10
2019-05-03T03:24:10.505Z,16.20
2019-05-03T03:26:43.218Z,16.20
2019-05-03T03:29:16.145Z,16.20
2019-05-03T03:32:17.484Z,16.10
2019-05-03T03:34:55.625Z,16.10
2019-05-03T03:37:22.357Z,16.10
2019-05-03T03:39:52.135Z,16.20
2019-05-03T03:42:25.004Z,16.10
2019-05-03T03:44:56.284Z,16.10
2019-05-03T03:47:27.613Z,16.10
2019-05-03T03:49:58.906Z,16.10
2019-05-03T03:52:30.179Z,16.10
2019-05-03T03:55:02.261Z,16.10
2019-05-03T03:57:36.782Z,16.10
2019-05-03T04:00:08.123Z,16.00
2019-05-03T04:02:39.634Z,16.00
2019-05-03T04:05:09.828Z,16.00
2019-05-03T04:07:39.561Z,16.00
2019-05-03T04:10:11.253Z,15.90
2019-05-03T04:12:45.305Z,15.90
2019-05-03T04:15:28.229Z,15.90
2019-05-03T04:17:59.828Z,16.00
2019-05-03T04:20:31.123Z,16.00
2019-05-03T04:23:00.708Z,16.00
2019-05-03T04:25:30.343Z,16.10
2019-05-03T04:28:00.183Z,16.00
2019-05-03T04:30:29.841Z,16.00
2019-05-03T04:32:59.487Z,16.00
2019-05-03T04:35:29.038Z,16.00
2019-05-03T04:37:58.683Z,16.00
2019-05-03T04:40:28.201Z,16.00
2019-05-03T04:42:57.806Z,16.00
2019-05-03T04:45:27.491Z,16.00
2019-05-03T04:47:56.982Z,16.10
2019-05-03T04:50:26.690Z,16.10
2019-05-03T04:52:56.832Z,16.10
2019-05-03T04:55:26.922Z,16.10
2019-05-03T04:57:56.665Z,16.20
2019-05-03T05:00:26.371Z,16.10
2019-05-03T05:02:56.038Z,16.10
2019-05-03T05:05:26.279Z,16.10
2019-05-03T05:07:56.039Z,16.10
2019-05-03T05:10:26.326Z,16.10
2019-05-03T05:12:55.988Z,16.10
2019-05-03T05:15:26.564Z,16.10
2019-05-03T05:18:01.150Z,16.10
2019-05-03T05:20:35.159Z,16.10
2019-05-03T05:23:05.032Z,16.10
2019-05-03T05:25:36.371Z,16.10
2019-05-03T05:28:15.047Z,16.10
2019-05-03T05:30:46.332Z,16.20
2019-05-03T05:33:22.008Z,16.30
2019-05-03T05:35:52.059Z,16.30
2019-05-03T05:38:21.693Z,16.40
2019-05-03T05:40:51.174Z,16.50
2019-05-03T05:43:20.698Z,16.60
2019-05-03T05:45:50.341Z,16.60
2019-05-03T05:48:27.317Z,16.70
2019-05-03T05:50:56.796Z,16.70
2019-05-03T05:53:27.600Z,16.60
2019-05-03T05:56:15.798Z,16.60
2019-05-03T05:58:50.185Z,16.70
2019-05-03T06:01:25.000Z,16.80
2019-05-03T06:03:55.129Z,16.70
2019-05-03T06:06:36.778Z,16.70
2019-05-03T06:09:11.918Z,16.80
2019-05-03T06:11:45.251Z,16.90
2019-05-03T06:14:16.294Z,17.00
2019-05-03T06:16:56.588Z,17.00
2019-05-03T06:19:27.739Z,17.10
2019-05-03T06:21:59.845Z,16.70
2019-05-03T06:24:31.020Z,16.70
2019-05-03T06:27:02.161Z,16.60
2019-05-03T06:29:31.766Z,16.70
2019-05-03T06:32:02.912Z,16.80
2019-05-03T06:34:32.339Z,16.60
2019-05-03T06:37:12.436Z,16.60
2019-05-03T06:39:41.974Z,16.60
2019-05-03T06:42:17.541Z,16.70
2019-05-03T06:44:42.680Z,16.70
2019-05-03T06:47:12.293Z,16.80
2019-05-03T06:49:44.983Z,16.70
2019-05-03T06:52:14.650Z,16.80
2019-05-03T06:54:44.877Z,16.80
2019-05-03T06:57:16.572Z,16.90
2019-05-03T06:59:55.026Z,16.60
2019-05-03T07:02:29.368Z,16.80
2019-05-03T07:05:05.111Z,17.00
2019-05-03T07:07:45.360Z,17.10
2019-05-03T07:10:28.388Z,17.20
2019-05-03T07:12:57.863Z,17.30
2019-05-03T07:15:27.932Z,17.40
2019-05-03T07:18:05.806Z,17.50
2019-05-03T07:20:44.612Z,17.60
2019-05-03T07:23:15.580Z,17.60
2019-05-03T07:25:45.392Z,17.40
2019-05-03T07:28:15.126Z,17.30
2019-05-03T07:30:45.705Z,17.30
2019-05-03T07:33:31.868Z,17.30
2019-05-03T07:36:01.364Z,17.20
2019-05-03T07:38:30.920Z,17.20
2019-05-03T07:41:00.376Z,17.20
2019-05-03T07:43:30.040Z,17.30
2019-05-03T07:45:59.530Z,17.30
2019-05-03T07:48:29.108Z,17.10
2019-05-03T07:50:59.645Z,17.10
2019-05-03T07:53:29.024Z,17.20
2019-05-03T07:56:06.098Z,17.30
2019-05-03T07:58:37.661Z,17.30
2019-05-03T08:01:09.906Z,17.40
2019-05-03T08:03:39.897Z,17.40
2019-05-03T08:06:09.461Z,17.40
2019-05-03T08:08:38.973Z,17.40
2019-05-03T08:11:08.516Z,17.50
2019-05-03T08:13:37.998Z,17.60
2019-05-03T08:16:07.551Z,17.50
2019-05-03T08:18:37.159Z,17.40
2019-05-03T08:21:07.732Z,17.40
2019-05-03T08:23:37.281Z,17.50
2019-05-03T08:26:06.827Z,17.40
2019-05-03T08:28:36.415Z,17.10
2019-05-03T08:31:26.487Z,17.20
2019-05-03T08:34:06.289Z,17.30
2019-05-03T08:36:37.428Z,17.50
2019-05-03T08:39:07.458Z,17.50
2019-05-03T08:41:38.718Z,17.50
2019-05-03T08:44:08.281Z,17.40
2019-05-03T08:46:37.885Z,17.30
2019-05-03T08:49:07.435Z,17.30
2019-05-03T08:51:37.006Z,17.40
2019-05-03T08:54:11.467Z,17.50
2019-05-03T08:56:41.266Z,17.60
2019-05-03T08:59:10.858Z,17.60
2019-05-03T09:01:40.481Z,17.60
2019-05-03T09:04:10.015Z,17.70
2019-05-03T09:06:39.761Z,17.70
2019-05-03T09:09:17.152Z,17.80
2019-05-03T09:11:46.772Z,17.90
2019-05-03T09:14:19.225Z,18.00
2019-05-03T09:16:48.933Z,18.10
2019-05-03T09:19:19.719Z,18.20
2019-05-03T09:21:49.309Z,18.10
2019-05-03T09:24:18.949Z,17.90
2019-05-03T09:26:48.642Z,18.00
2019-05-03T09:29:18.396Z,18.00
2019-05-03T09:31:48.154Z,17.90
2019-05-03T09:34:17.724Z,18.00
2019-05-03T09:36:47.218Z,17.90
2019-05-03T09:39:16.824Z,17.90
2019-05-03T09:41:46.360Z,18.00
2019-05-03T09:44:15.911Z,18.00
2019-05-03T09:46:45.324Z,18.00
2019-05-03T09:49:16.562Z,17.90
2019-05-03T09:51:46.103Z,17.90
2019-05-03T09:54:24.959Z,17.90
2019-05-03T09:56:58.835Z,17.90
2019-05-03T09:59:29.840Z,18.00
2019-05-03T10:02:00.169Z,18.10
2019-05-03T10:04:29.582Z,18.30
2019-05-03T10:06:59.355Z,18.30
2019-05-03T10:09:28.963Z,18.10
2019-05-03T10:11:58.621Z,18.20
2019-05-03T10:14:28.243Z,18.30
2019-05-03T10:17:08.316Z,18.40
2019-05-03T10:19:40.384Z,18.40
2019-05-03T10:22:09.286Z,18.40
2019-05-03T10:24:38.841Z,18.40
2019-05-03T10:27:08.346Z,18.30
2019-05-03T10:29:37.842Z,18.40
2019-05-03T10:32:10.481Z,18.40
2019-05-03T10:34:41.629Z,18.50
2019-05-03T10:37:15.079Z,18.30
2019-05-03T10:39:45.508Z,18.20
2019-05-03T10:42:15.097Z,18.30
2019-05-03T10:44:45.007Z,18.40
2019-05-03T10:47:14.811Z,18.50
2019-05-03T10:49:45.778Z,18.30
2019-05-03T10:52:16.633Z,18.40
2019-05-03T10:54:46.256Z,18.30
2019-05-03T10:57:20.411Z,18.30
2019-05-03T10:59:49.842Z,18.40
2019-05-03T11:02:34.912Z,18.20
2019-05-03T11:05:06.597Z,18.00
2019-05-03T11:07:37.422Z,18.20
2019-05-03T11:10:08.254Z,18.10
2019-05-03T11:12:37.648Z,18.10
2019-05-03T11:15:08.287Z,18.10
2019-05-03T11:17:38.995Z,18.20
2019-05-03T11:20:08.548Z,18.20
2019-05-03T11:22:38.030Z,18.30
2019-05-03T11:25:07.894Z,18.20
2019-05-03T11:27:39.034Z,18.20
2019-05-03T11:30:09.583Z,18.10
2019-05-03T11:32:44.764Z,18.10
2019-05-03T11:35:18.696Z,18.10
2019-05-03T11:37:52.668Z,18.10
2019-05-03T11:40:22.339Z,18.20
2019-05-03T11:42:55.254Z,18.10
2019-05-03T11:45:24.641Z,18.10
2019-05-03T11:47:55.054Z,18.20
2019-05-03T11:50:25.374Z,18.50
2019-05-03T11:52:55.490Z,18.60
2019-05-03T11:55:26.769Z,18.70
2019-05-03T11:57:56.732Z,18.80
2019-05-03T12:00:28.155Z,18.60
2019-05-03T12:03:02.047Z,18.50
2019-05-03T12:05:32.352Z,18.60
2019-05-03T12:08:01.898Z,18.50
2019-05-03T12:10:48.358Z,18.90
2019-05-03T12:13:05.073Z,19.10
2019-05-03T12:15:35.283Z,18.90
2019-05-03T12:18:07.553Z,18.90
2019-05-03T12:20:40.311Z,19.00
2019-05-03T12:23:11.002Z,18.90
2019-05-03T12:25:41.701Z,18.90
2019-05-03T12:28:11.834Z,19.20
2019-05-03T12:30:42.036Z,19.50
2019-05-03T12:33:11.649Z,19.70
2019-05-03T12:35:41.261Z,19.70
2019-05-03T12:38:10.794Z,19.70
2019-05-03T12:40:40.289Z,19.80
2019-05-03T12:43:09.853Z,20.00
2019-05-03T12:45:39.383Z,20.10
2019-05-03T12:48:09.020Z,20.20
2019-05-03T12:50:38.990Z,20.20
2019-05-03T12:53:08.763Z,20.00
2019-05-03T12:55:38.451Z,19.90
2019-05-03T12:58:08.123Z,19.80
2019-05-03T13:00:42.098Z,19.70
2019-05-03T13:03:15.946Z,19.60
2019-05-03T13:05:45.518Z,19.60
2019-05-03T13:08:31.816Z,19.50
2019-05-03T13:11:01.320Z,19.30
2019-05-03T13:13:32.898Z,19.30
2019-05-03T13:16:04.952Z,19.30
2019-05-03T13:18:35.292Z,19.30
2019-05-03T13:21:06.073Z,19.20
2019-05-03T13:23:37.327Z,19.10
2019-05-03T13:26:06.865Z,19.00
2019-05-03T13:28:36.292Z,19.00
2019-05-03T13:31:06.211Z,19.10
2019-05-03T13:33:36.542Z,18.90
2019-05-03T13:36:06.192Z,18.90
2019-05-03T13:38:35.681Z,18.90
2019-05-03T13:41:06.816Z,18.90
2019-05-03T13:43:37.258Z,18.80
2019-05-03T13:46:08.486Z,18.70
2019-05-03T13:48:45.357Z,18.50
2019-05-03T13:51:09.385Z,18.40
2019-05-03T13:53:38.941Z,18.30
2019-05-03T13:56:08.460Z,18.20
2019-05-03T13:58:37.891Z,18.20
2019-05-03T14:01:07.481Z,18.20
2019-05-03T14:03:37.086Z,18.10
2019-05-03T14:06:08.329Z,18.00
2019-05-03T14:08:49.924Z,17.60
2019-05-03T14:11:19.496Z,17.60
2019-05-03T14:13:49.022Z,17.90
2019-05-03T14:16:18.626Z,18.00
2019-05-03T14:18:49.792Z,18.30
2019-05-03T14:21:30.178Z,18.40
2019-05-03T14:24:09.625Z,18.40
2019-05-03T14:26:40.980Z,18.50
2019-05-03T14:29:10.704Z,18.50
2019-05-03T14:31:40.238Z,18.70
2019-05-03T14:34:09.885Z,18.90
2019-05-03T14:36:39.423Z,19.20
2019-05-03T14:39:10.329Z,19.70
2019-05-03T14:41:40.293Z,20.30
2019-05-03T14:44:09.986Z,20.90
2019-05-03T14:46:39.560Z,21.20
2019-05-03T14:49:09.015Z,21.70
2019-05-03T14:51:38.693Z,22.00
2019-05-03T14:54:09.394Z,22.30
2019-05-03T14:56:45.338Z,22.50
2019-05-03T14:59:34.547Z,23.00
2019-05-03T15:02:15.534Z,23.00
2019-05-03T15:04:45.247Z,22.90
2019-05-03T15:07:15.349Z,22.80
2019-05-03T15:09:46.069Z,22.50
2019-05-03T15:12:15.615Z,22.60
2019-05-03T15:14:45.252Z,22.70
2019-05-03T15:17:14.862Z,22.80
2019-05-03T15:19:46.126Z,23.10
2019-05-03T15:22:20.933Z,22.80
2019-05-03T15:24:51.022Z,22.60
2019-05-03T15:27:20.669Z,22.30
2019-05-03T15:29:50.717Z,22.20
2019-05-03T15:32:20.261Z,22.40
2019-05-03T15:34:49.866Z,22.90
2019-05-03T15:37:20.505Z,23.40
2019-05-03T15:39:50.055Z,23.80
2019-05-03T15:42:21.011Z,24.10
2019-05-03T15:45:01.268Z,24.10
2019-05-03T15:47:38.528Z,24.10
2019-05-03T15:50:08.075Z,24.20
2019-05-03T15:52:37.499Z,23.70
2019-05-03T15:55:08.891Z,23.30
2019-05-03T15:57:38.607Z,22.90
2019-05-03T16:00:10.077Z,22.40
2019-05-03T16:02:41.470Z,21.90
2019-05-03T16:05:11.051Z,21.40
2019-05-03T16:07:40.504Z,21.10
2019-05-03T16:10:10.080Z,21.00
2019-05-03T16:12:39.709Z,20.70
2019-05-03T16:15:09.785Z,21.30
2019-05-03T16:17:39.385Z,22.10
2019-05-03T16:20:21.004Z,22.60
2019-05-03T16:22:50.409Z,22.70
2019-05-03T16:25:20.418Z,22.30
2019-05-03T16:27:51.670Z,21.70
2019-05-03T16:30:23.052Z,21.30
2019-05-03T16:32:52.548Z,21.00
2019-05-03T16:35:22.523Z,20.70
2019-05-03T16:37:54.438Z,20.50
2019-05-03T16:40:25.283Z,20.40
2019-05-03T16:42:54.960Z,20.60
2019-05-03T16:45:25.602Z,20.80
2019-05-03T16:47:55.414Z,20.90
2019-05-03T16:50:26.708Z,21.00
2019-05-03T16:52:56.250Z,21.10
2019-05-03T16:55:25.961Z,20.90
2019-05-03T16:57:56.166Z,20.80
2019-05-03T17:00:25.772Z,20.70
2019-05-03T17:02:55.384Z,20.60
2019-05-03T17:05:26.574Z,20.60
2019-05-03T17:08:15.943Z,20.50
2019-05-03T17:10:58.715Z,20.40
2019-05-03T17:13:28.292Z,20.60
2019-05-03T17:15:57.954Z,20.60
2019-05-03T17:18:27.420Z,20.20
2019-05-03T17:20:56.957Z,20.00
2019-05-03T17:23:26.386Z,19.90
2019-05-03T17:25:55.903Z,19.80
2019-05-03T17:28:25.723Z,19.70
2019-05-03T17:30:56.351Z,19.60
2019-05-03T17:33:25.964Z,19.40
2019-05-03T17:35:56.255Z,19.40
2019-05-03T17:38:25.761Z,19.30
2019-05-03T17:40:56.932Z,19.40
2019-05-03T17:43:30.816Z,19.20
2019-05-03T17:46:04.914Z,19.20
2019-05-03T17:48:35.584Z,19.10
2019-05-03T17:51:05.280Z,19.00
2019-05-03T17:53:39.531Z,19.00
2019-05-03T17:56:16.422Z,18.90
2019-05-03T17:58:55.026Z,18.70
2019-05-03T18:01:55.411Z,18.70
2019-05-03T18:04:26.616Z,18.60
2019-05-03T18:07:04.595Z,18.70
2019-05-03T18:09:35.871Z,18.60
2019-05-03T18:12:06.246Z,18.50
2019-05-03T18:14:35.796Z,18.50
2019-05-03T18:17:05.718Z,18.50
2019-05-03T18:19:35.589Z,18.40
2019-05-03T18:22:06.265Z,18.40
2019-05-03T18:37:12.078Z,18.20
2019-05-03T18:39:41.573Z,18.20
2019-05-03T18:42:12.746Z,18.10
2019-05-03T18:44:44.947Z,18.00
2019-05-03T18:47:16.237Z,18.00
2019-05-03T18:49:45.821Z,18.00
2019-05-03T18:52:15.356Z,18.00
2019-05-03T18:54:44.864Z,18.00
2019-05-03T18:57:15.606Z,17.90
2019-05-03T18:59:45.533Z,17.90
2019-05-03T19:02:15.396Z,18.00
2019-05-03T19:04:46.679Z,18.00
2019-05-03T19:07:35.644Z,17.90
2019-05-03T19:10:12.913Z,17.90
2019-05-03T19:12:46.840Z,17.90
2019-05-03T19:15:16.879Z,17.90
2019-05-03T19:17:54.721Z,17.90
2019-05-03T19:20:25.146Z,17.90
2019-05-03T19:22:54.822Z,17.90
2019-05-03T19:25:25.509Z,17.80
2019-05-03T19:27:55.144Z,17.80
2019-05-03T19:30:26.239Z,17.80
2019-05-03T19:32:55.868Z,17.70
2019-05-03T19:35:27.637Z,17.70
2019-05-03T19:37:56.639Z,17.80
2019-05-03T19:40:26.325Z,17.80
2019-05-03T19:42:55.884Z,17.80
2019-05-03T19:45:25.496Z,17.80
2019-05-03T19:47:55.328Z,17.70
2019-05-03T19:50:27.255Z,17.80
2019-05-03T19:53:14.465Z,17.80
2019-05-03T19:55:44.496Z,17.70
2019-05-03T19:58:15.333Z,17.60
2019-05-03T20:01:01.770Z,17.40
2019-05-03T20:03:35.604Z,17.50
2019-05-03T20:06:06.872Z,17.50
2019-05-03T20:08:38.060Z,17.50
2019-05-03T20:11:14.897Z,17.50
2019-05-03T20:13:45.442Z,17.50
2019-05-03T20:16:15.537Z,17.50
2019-05-03T20:18:45.828Z,17.50
2019-05-03T20:21:16.049Z,17.40
2019-05-03T20:23:47.251Z,17.40
2019-05-03T20:26:17.072Z,17.40
2019-05-03T20:28:46.639Z,17.30
2019-05-03T20:31:16.283Z,17.40
2019-05-03T20:33:46.624Z,17.30
2019-05-03T20:36:16.349Z,17.20
2019-05-03T20:38:46.422Z,17.20
2019-05-03T20:41:15.894Z,17.10
2019-05-03T20:43:47.569Z,17.10
2019-05-03T20:46:18.810Z,17.10
2019-05-03T20:48:49.933Z,17.00
2019-05-03T20:51:19.442Z,17.00
2019-05-03T20:53:49.126Z,17.10
2019-05-03T20:56:18.545Z,17.00
2019-05-03T20:58:48.105Z,16.90
2019-05-03T21:01:17.714Z,16.90
2019-05-03T21:03:47.387Z,16.90
2019-05-03T21:06:16.837Z,16.90
2019-05-03T21:08:52.915Z,16.90
2019-05-03T21:11:17.566Z,16.80
2019-05-03T21:13:47.113Z,16.80
2019-05-03T21:16:21.017Z,16.80
2019-05-03T21:18:54.869Z,16.90
2019-05-03T21:21:29.044Z,16.90
2019-05-03T21:24:04.573Z,16.80
2019-05-03T21:26:34.615Z,16.90
2019-05-03T21:29:04.781Z,16.90
2019-05-03T21:31:35.196Z,16.90
2019-05-03T21:34:05.984Z,16.80
2019-05-03T21:36:35.599Z,16.90
2019-05-03T21:39:07.322Z,16.90
2019-05-03T21:41:38.123Z,16.90
2019-05-03T21:44:07.837Z,16.90
2019-05-03T21:46:41.672Z,16.90
2019-05-03T21:49:14.788Z,16.90
2019-05-03T21:51:45.013Z,16.90
2019-05-03T21:54:15.260Z,16.80
2019-05-03T21:56:45.284Z,16.80
2019-05-03T21:59:14.823Z,16.80
2019-05-03T22:01:46.236Z,16.70
2019-05-03T22:04:15.859Z,16.70
2019-05-03T22:06:45.449Z,16.60
2019-05-03T22:09:15.072Z,16.70
2019-05-03T22:11:44.869Z,16.70
2019-05-03T22:14:16.208Z,16.50
2019-05-03T22:16:50.200Z,16.50
2019-05-03T22:19:19.714Z,16.50
2019-05-03T22:21:52.109Z,16.70
2019-05-03T22:24:26.124Z,16.80
2019-05-03T22:26:59.929Z,16.80
2019-05-03T22:29:29.439Z,16.60
2019-05-03T22:32:00.051Z,16.60
2019-05-03T22:34:29.648Z,16.60
2019-05-03T22:36:59.135Z,16.60
2019-05-03T22:39:28.703Z,16.60
2019-05-03T22:41:58.234Z,16.60
2019-05-03T22:44:27.742Z,16.70
2019-05-03T22:46:57.916Z,16.60
2019-05-03T22:49:46.846Z,16.50
2019-05-03T22:52:16.542Z,16.40
2019-05-03T22:54:46.461Z,16.30
2019-05-03T22:57:15.931Z,16.20
2019-05-03T22:59:45.506Z,16.20
2019-05-03T23:02:17.110Z,16.20
2019-05-03T23:04:46.419Z,16.20
2019-05-03T23:07:15.941Z,16.30
2019-05-03T23:09:45.519Z,16.30
2019-05-03T23:12:15.077Z,16.20
2019-05-03T23:14:44.798Z,16.20
2019-05-03T23:17:14.950Z,16.10
2019-05-03T23:19:46.510Z,16.10
2019-05-03T23:22:17.591Z,16.00
2019-05-03T23:24:47.134Z,16.00
2019-05-03T23:27:16.966Z,16.00
2019-05-03T23:29:46.383Z,15.80
2019-05-03T23:32:15.754Z,15.80
2019-05-03T23:34:46.404Z,15.80
2019-05-03T23:37:16.160Z,15.90
2019-05-03T23:39:47.186Z,15.80
2019-05-03T23:42:16.903Z,15.60
2019-05-03T23:44:46.268Z,15.60
2019-05-03T23:47:34.514Z,15.60
2019-05-03T23:50:10.343Z,15.60
2019-05-03T23:52:39.866Z,15.60
2019-05-03T23:55:11.736Z,15.60
2019-05-03T23:57:41.392Z,15.60
